createdAt,value
2023-04-20T00:00:49.003Z,22.37
2023-04-20T00:03:21.752Z,25.03
2023-04-20T00:05:51.597Z,21.27
2023-04-20T00:08:18.773Z,21.57
2023-04-20T00:10:46.088Z,23.07
2023-04-20T00:13:13.204Z,22.33
2023-04-20T00:15:39.944Z,28.17
2023-04-20T00:18:07.176Z,21.57
2023-04-20T00:20:35.152Z,22.17
2023-04-20T00:23:02.859Z,23.93
2023-04-20T00:25:30.572Z,21.43
2023-04-20T00:27:58.258Z,22.40
2023-04-20T00:30:25.033Z,21.33
2023-04-20T00:32:52.113Z,21.97
2023-04-20T00:35:18.971Z,22.07
2023-04-20T00:37:46.188Z,24.10
2023-04-20T00:40:12.956Z,21.87
2023-04-20T00:42:42.892Z,22.97
2023-04-20T00:45:10.719Z,20.47
2023-04-20T00:47:38.307Z,22.70
2023-04-20T00:50:06.799Z,20.83
2023-04-20T00:52:34.257Z,23.40
2023-04-20T00:55:01.740Z,23.23
2023-04-20T00:57:29.474Z,21.43
2023-04-20T00:59:56.202Z,27.20
2023-04-20T01:02:23.508Z,20.43
2023-04-20T01:04:50.810Z,21.57
2023-04-20T01:07:18.197Z,21.37
2023-04-20T01:09:44.958Z,20.00
2023-04-20T01:12:12.088Z,21.87
2023-04-20T01:14:38.871Z,22.93
2023-04-20T01:17:06.081Z,21.80
2023-04-20T01:19:33.573Z,23.03
2023-04-20T01:22:02.598Z,24.53
2023-04-20T01:24:29.424Z,22.53
2023-04-20T01:26:58.777Z,23.00
2023-04-20T01:29:25.784Z,20.20
2023-04-20T01:31:52.824Z,24.67
2023-04-20T01:34:19.590Z,25.80
2023-04-20T01:36:46.688Z,24.07
2023-04-20T01:39:13.441Z,22.33
2023-04-20T01:41:40.725Z,22.50
2023-04-20T01:44:07.497Z,21.07
2023-04-20T01:46:39.067Z,25.60
2023-04-20T01:49:08.062Z,20.97
2023-04-20T01:51:35.622Z,22.00
2023-04-20T01:54:03.088Z,29.23
2023-04-20T01:56:30.233Z,20.23
2023-04-20T01:58:58.644Z,24.53
2023-04-20T02:01:27.357Z,24.33
2023-04-20T02:03:54.365Z,20.73
2023-04-20T02:06:21.713Z,26.17
2023-04-20T02:08:48.619Z,27.17
2023-04-20T02:11:15.644Z,25.83
2023-04-20T02:13:42.382Z,31.20
2023-04-20T02:16:09.537Z,33.83
2023-04-20T02:18:37.360Z,33.07
2023-04-20T02:21:05.242Z,31.87
2023-04-20T02:23:32.034Z,35.83
2023-04-20T02:25:59.136Z,33.03
2023-04-20T02:28:25.847Z,45.17
2023-04-20T02:30:52.933Z,39.43
2023-04-20T02:33:21.722Z,44.37
2023-04-20T02:35:49.080Z,41.43
2023-04-20T02:38:15.858Z,46.27
2023-04-20T02:40:42.863Z,36.77
2023-04-20T02:43:10.090Z,36.00
2023-04-20T02:45:38.844Z,42.27
2023-04-20T02:48:07.267Z,38.57
2023-04-20T02:50:36.291Z,44.37
2023-04-20T02:53:11.005Z,36.27
2023-04-20T02:55:38.967Z,41.17
2023-04-20T02:58:17.715Z,42.17
2023-04-20T03:01:04.197Z,42.83
2023-04-20T03:03:32.607Z,35.97
2023-04-20T03:06:00.036Z,39.60
2023-04-20T03:08:27.176Z,39.43
2023-04-20T03:10:56.488Z,37.60
2023-04-20T03:13:23.523Z,37.53
2023-04-20T03:15:55.147Z,34.50
2023-04-20T03:18:36.746Z,35.03
2023-04-20T03:21:03.918Z,35.00
2023-04-20T03:23:31.829Z,34.43
2023-04-20T03:26:01.674Z,40.23
2023-04-20T03:28:43.806Z,36.87
2023-04-20T03:31:14.780Z,41.63
2023-04-20T03:33:41.764Z,33.73
2023-04-20T03:36:09.471Z,35.63
2023-04-20T03:38:36.885Z,32.93
2023-04-20T03:41:03.972Z,37.40
2023-04-20T03:43:30.754Z,35.83
2023-04-20T03:45:57.885Z,31.93
2023-04-20T03:48:24.749Z,38.57
2023-04-20T03:50:52.693Z,35.70
2023-04-20T03:53:19.555Z,35.90
2023-04-20T03:55:46.831Z,36.43
2023-04-20T03:58:17.651Z,36.83
2023-04-20T04:01:03.192Z,33.77
2023-04-20T04:03:31.663Z,30.60
2023-04-20T04:05:58.866Z,34.40
2023-04-20T04:08:26.750Z,34.27
2023-04-20T04:10:54.077Z,28.23
2023-04-20T04:13:20.888Z,37.47
2023-04-20T04:15:47.997Z,28.17
2023-04-20T04:18:15.644Z,29.50
2023-04-20T04:20:43.123Z,25.00
2023-04-20T04:23:11.773Z,27.63
2023-04-20T04:25:48.692Z,29.13
2023-04-20T04:28:18.582Z,32.80
2023-04-20T04:30:58.041Z,29.67
2023-04-20T04:33:25.385Z,28.57
2023-04-20T04:35:53.660Z,24.90
2023-04-20T04:38:21.034Z,25.87
2023-04-20T04:40:50.082Z,25.97
2023-04-20T04:43:16.827Z,20.60
2023-04-20T04:45:50.880Z,20.67
2023-04-20T04:48:19.782Z,23.70
2023-04-20T04:50:46.818Z,19.27
2023-04-20T04:53:13.560Z,23.80
2023-04-20T04:55:40.742Z,26.03
2023-04-20T04:58:07.493Z,30.20
2023-04-20T05:00:34.504Z,26.93
2023-04-20T05:03:01.371Z,29.13
2023-04-20T05:05:28.478Z,26.57
2023-04-20T05:07:55.330Z,29.70
2023-04-20T05:10:22.423Z,26.03
2023-04-20T05:12:49.173Z,25.00
2023-04-20T05:15:16.187Z,26.83
2023-04-20T05:17:43.105Z,24.00
2023-04-20T05:20:11.622Z,25.90
2023-04-20T05:22:38.410Z,22.50
2023-04-20T05:25:06.777Z,20.70
2023-04-20T05:27:34.053Z,22.03
2023-04-20T05:30:13.021Z,22.73
2023-04-20T05:32:43.811Z,23.37
2023-04-20T05:35:10.816Z,19.20
2023-04-20T05:37:37.537Z,22.53
2023-04-20T05:40:05.463Z,21.87
2023-04-20T05:42:32.241Z,21.07
2023-04-20T05:44:59.269Z,21.63
2023-04-20T05:47:27.513Z,19.17
2023-04-20T05:49:54.580Z,18.57
2023-04-20T05:52:21.299Z,20.60
2023-04-20T05:54:49.720Z,18.77
2023-04-20T05:57:16.610Z,17.05
2023-04-20T05:59:44.078Z,24.07
2023-04-20T06:02:10.813Z,18.52
2023-04-20T06:04:38.360Z,20.45
2023-04-20T06:07:05.271Z,17.35
2023-04-20T06:09:32.249Z,20.63
2023-04-20T06:12:00.394Z,18.48
2023-04-20T06:14:27.497Z,19.13
2023-04-20T06:16:54.245Z,22.10
2023-04-20T06:19:21.259Z,23.52
2023-04-20T06:21:48.021Z,20.23
2023-04-20T06:24:15.010Z,20.95
2023-04-20T06:26:41.707Z,17.98
2023-04-20T06:29:08.715Z,20.05
2023-04-20T06:31:35.993Z,21.40
2023-04-20T06:34:03.068Z,15.82
2023-04-20T06:36:30.617Z,16.33
2023-04-20T06:38:57.641Z,17.23
2023-04-20T06:41:24.384Z,15.85
2023-04-20T06:43:51.599Z,14.52
2023-04-20T06:46:18.458Z,12.63
2023-04-20T06:48:45.437Z,18.20
2023-04-20T06:51:13.615Z,12.85
2023-04-20T06:53:40.767Z,17.00
2023-04-20T06:56:07.945Z,15.00
2023-04-20T06:58:35.129Z,14.43
2023-04-20T07:01:02.305Z,12.93
2023-04-20T07:03:29.530Z,15.25
2023-04-20T07:05:56.287Z,14.50
2023-04-20T07:08:23.522Z,15.07
2023-04-20T07:10:50.373Z,18.38
2023-04-20T07:13:17.581Z,13.32
2023-04-20T07:15:45.590Z,14.98
2023-04-20T07:18:12.701Z,17.02
2023-04-20T07:20:39.718Z,17.92
2023-04-20T07:23:06.742Z,15.60
2023-04-20T07:25:33.518Z,20.48
2023-04-20T07:28:00.588Z,17.27
2023-04-20T07:30:27.481Z,16.00
2023-04-20T07:32:54.540Z,17.02
2023-04-20T07:35:21.497Z,18.63
2023-04-20T07:37:48.568Z,20.42
2023-04-20T07:40:16.874Z,17.88
2023-04-20T07:42:44.062Z,14.95
2023-04-20T07:45:12.673Z,16.77
2023-04-20T07:47:39.784Z,14.68
2023-04-20T07:50:07.500Z,15.02
2023-04-20T07:52:34.507Z,22.15
2023-04-20T07:55:01.454Z,19.67
2023-04-20T07:57:29.207Z,15.52
2023-04-20T07:59:56.070Z,15.40
2023-04-20T08:02:23.196Z,13.80
2023-04-20T08:04:50.521Z,17.50
2023-04-20T08:07:18.993Z,17.30
2023-04-20T08:09:45.860Z,14.52
2023-04-20T08:12:13.128Z,15.68
2023-04-20T08:14:41.293Z,14.82
2023-04-20T08:17:08.546Z,19.50
2023-04-20T08:19:35.311Z,14.63
2023-04-20T08:22:03.422Z,17.50
2023-04-20T08:24:30.236Z,16.55
2023-04-20T08:26:59.230Z,18.90
2023-04-20T08:29:26.466Z,16.90
2023-04-20T08:31:53.793Z,13.95
2023-04-20T08:34:20.665Z,13.68
2023-04-20T08:36:47.732Z,15.30
2023-04-20T08:39:19.288Z,16.42
2023-04-20T08:41:47.987Z,15.90
2023-04-20T08:44:14.969Z,15.57
2023-04-20T08:46:46.985Z,13.95
2023-04-20T08:49:16.652Z,14.13
2023-04-20T08:51:44.877Z,16.27
2023-04-20T08:54:12.494Z,16.45
2023-04-20T08:56:45.677Z,19.58
2023-04-20T08:59:14.301Z,11.13
2023-04-20T09:01:42.483Z,12.98
2023-04-20T09:04:29.565Z,10.40
2023-04-20T09:06:56.835Z,11.57
2023-04-20T09:09:25.275Z,15.07
2023-04-20T09:12:03.370Z,11.30
2023-04-20T09:14:31.377Z,10.85
2023-04-20T09:17:02.742Z,12.50
2023-04-20T09:19:30.402Z,13.18
2023-04-20T09:22:00.125Z,11.45
2023-04-20T09:24:34.696Z,16.95
2023-04-20T09:27:14.012Z,13.43
2023-04-20T09:29:40.799Z,12.18
2023-04-20T09:32:07.873Z,13.82
2023-04-20T09:34:45.027Z,11.95
2023-04-20T09:37:16.128Z,11.20
2023-04-20T09:39:44.463Z,11.95
2023-04-20T09:42:16.417Z,19.30
2023-04-20T09:44:43.874Z,14.95
2023-04-20T09:47:18.934Z,14.07
2023-04-20T09:49:49.223Z,10.68
2023-04-20T09:52:20.494Z,14.52
2023-04-20T09:54:47.321Z,18.42
2023-04-20T09:57:15.065Z,18.85
2023-04-20T09:59:46.961Z,16.85
2023-04-20T10:02:14.690Z,14.27
2023-04-20T10:05:01.820Z,14.05
2023-04-20T10:07:31.761Z,16.52
2023-04-20T10:10:13.424Z,18.42
2023-04-20T10:13:07.002Z,18.15
2023-04-20T10:15:41.624Z,16.23
2023-04-20T10:18:24.926Z,15.48
2023-04-20T10:21:04.347Z,18.05
2023-04-20T10:23:31.542Z,12.10
2023-04-20T10:26:00.627Z,18.20
2023-04-20T10:28:41.954Z,16.95
2023-04-20T10:31:12.965Z,16.30
2023-04-20T10:33:51.181Z,17.67
2023-04-20T10:36:26.760Z,17.65
2023-04-20T10:38:53.879Z,17.90
2023-04-20T10:41:21.175Z,14.45
2023-04-20T10:43:48.294Z,17.85
2023-04-20T10:46:21.506Z,18.85
2023-04-20T10:48:59.189Z,17.08
2023-04-20T10:51:26.133Z,13.45
2023-04-20T10:54:00.480Z,17.33
2023-04-20T10:56:27.390Z,21.98
2023-04-20T10:58:54.596Z,26.23
2023-04-20T11:01:21.492Z,22.70
2023-04-20T11:03:52.020Z,16.08
2023-04-20T11:06:18.926Z,17.90
2023-04-20T11:08:46.491Z,19.23
2023-04-20T11:11:25.448Z,14.65
2023-04-20T11:13:52.491Z,16.00
2023-04-20T11:16:19.796Z,17.33
2023-04-20T11:18:54.052Z,17.67
2023-04-20T11:21:22.557Z,24.23
2023-04-20T11:23:50.314Z,15.35
2023-04-20T11:26:17.576Z,21.67
2023-04-20T11:28:55.858Z,20.80
2023-04-20T11:31:23.908Z,26.73
2023-04-20T11:33:50.933Z,20.88
2023-04-20T11:36:26.551Z,16.63
2023-04-20T11:38:53.340Z,22.60
2023-04-20T11:41:21.665Z,26.90
2023-04-20T11:43:49.121Z,19.42
2023-04-20T11:46:18.110Z,17.73
2023-04-20T11:48:45.817Z,24.10
2023-04-20T11:51:13.437Z,22.98
2023-04-20T11:53:41.456Z,23.70
2023-04-20T11:56:09.185Z,18.45
2023-04-20T11:58:36.513Z,21.20
2023-04-20T12:01:05.360Z,16.58
2023-04-20T12:03:32.503Z,24.45
2023-04-20T12:05:59.808Z,21.88
2023-04-20T12:08:26.548Z,19.42
2023-04-20T12:10:53.761Z,24.20
2023-04-20T12:13:20.505Z,22.42
2023-04-20T12:15:47.590Z,22.38
2023-04-20T12:18:14.417Z,19.98
2023-04-20T12:20:41.391Z,19.77
2023-04-20T12:23:08.194Z,19.15
2023-04-20T12:25:35.160Z,25.05
2023-04-20T12:28:06.722Z,20.55
2023-04-20T12:30:35.321Z,19.55
2023-04-20T12:33:03.453Z,22.83
2023-04-20T12:35:30.541Z,18.95
2023-04-20T12:37:57.291Z,21.23
2023-04-20T12:40:24.689Z,17.90
2023-04-20T12:42:51.485Z,24.33
2023-04-20T12:45:18.649Z,19.92
2023-04-20T12:47:45.497Z,19.77
2023-04-20T12:50:13.051Z,20.38
2023-04-20T12:52:39.914Z,15.30
2023-04-20T12:55:07.935Z,18.98
2023-04-20T12:57:34.674Z,24.00
2023-04-20T13:00:06.108Z,17.27
2023-04-20T13:02:33.797Z,20.58
2023-04-20T13:05:01.051Z,25.52
2023-04-20T13:07:28.044Z,20.25
2023-04-20T13:09:55.134Z,24.25
2023-04-20T13:12:21.894Z,26.55
2023-04-20T13:14:49.179Z,24.90
2023-04-20T13:17:15.921Z,13.70
2023-04-20T13:19:43.336Z,16.08
2023-04-20T13:22:11.838Z,17.30
2023-04-20T13:24:40.295Z,19.08
2023-04-20T13:27:07.006Z,21.58
2023-04-20T13:29:34.139Z,14.45
2023-04-20T13:32:01.041Z,24.25
2023-04-20T13:34:28.122Z,14.95
2023-04-20T13:36:55.055Z,14.95
2023-04-20T13:39:22.355Z,12.77
2023-04-20T13:41:49.403Z,15.82
2023-04-20T13:44:16.624Z,14.40
2023-04-20T13:46:46.303Z,16.10
2023-04-20T13:49:13.653Z,13.35
2023-04-20T13:51:40.797Z,16.92
2023-04-20T13:54:08.167Z,24.00
2023-04-20T13:56:35.166Z,10.98
2023-04-20T13:59:04.015Z,16.08
2023-04-20T14:01:31.545Z,12.60
2023-04-20T14:03:59.147Z,23.65
2023-04-20T14:06:27.573Z,13.70
2023-04-20T14:08:54.766Z,12.38
2023-04-20T14:11:21.545Z,15.55
2023-04-20T14:13:49.209Z,13.75
2023-04-20T14:16:16.136Z,13.35
2023-04-20T14:18:43.336Z,10.10
2023-04-20T14:21:10.089Z,12.95
2023-04-20T14:23:37.286Z,14.95
2023-04-20T14:26:04.548Z,12.98
2023-04-20T14:28:33.467Z,13.55
2023-04-20T14:31:02.364Z,19.20
2023-04-20T14:33:29.468Z,13.85
2023-04-20T14:35:56.149Z,15.55
2023-04-20T14:38:24.716Z,17.98
2023-04-20T14:40:52.454Z,9.68
2023-04-20T14:43:19.458Z,27.42
2023-04-20T14:45:46.808Z,16.73
2023-04-20T14:48:13.957Z,12.48
2023-04-20T14:50:40.915Z,10.07
2023-04-20T14:53:09.477Z,18.33
2023-04-20T14:55:36.252Z,12.40
2023-04-20T14:58:03.372Z,16.95
2023-04-20T15:00:30.135Z,17.15
2023-04-20T15:02:57.435Z,11.85
2023-04-20T15:05:26.243Z,12.80
2023-04-20T15:07:53.392Z,8.13
2023-04-20T15:10:21.509Z,20.33
2023-04-20T15:12:48.870Z,13.73
2023-04-20T15:15:16.936Z,6.13
2023-04-20T15:17:46.496Z,9.55
2023-04-20T15:20:15.219Z,8.90
2023-04-20T15:22:42.294Z,12.60
2023-04-20T15:25:09.680Z,12.50
2023-04-20T15:27:36.761Z,11.40
2023-04-20T15:30:04.175Z,13.40
2023-04-20T15:32:33.805Z,6.35
2023-04-20T15:35:01.142Z,8.65
2023-04-20T15:37:28.684Z,12.20
2023-04-20T15:39:56.108Z,19.45
2023-04-20T15:42:23.238Z,11.60
2023-04-20T15:44:49.919Z,12.32
2023-04-20T15:47:16.967Z,18.70
2023-04-20T15:49:43.737Z,18.45
2023-04-20T15:52:10.699Z,15.05
2023-04-20T15:54:37.963Z,9.95
2023-04-20T15:57:05.332Z,15.80
2023-04-20T15:59:32.362Z,13.43
2023-04-20T16:01:59.691Z,15.95
2023-04-20T16:04:26.859Z,11.45
2023-04-20T16:06:55.117Z,9.10
2023-04-20T16:09:23.615Z,10.57
2023-04-20T16:11:51.052Z,14.13
2023-04-20T16:14:18.150Z,11.93
2023-04-20T16:16:45.380Z,14.20
2023-04-20T16:19:13.743Z,16.45
2023-04-20T16:21:41.016Z,11.55
2023-04-20T16:24:07.838Z,10.75
2023-04-20T16:26:34.856Z,12.85
2023-04-20T16:29:01.910Z,12.10
2023-04-20T16:31:29.595Z,11.60
2023-04-20T16:33:57.258Z,9.07
2023-04-20T16:36:24.385Z,12.05
2023-04-20T16:38:51.070Z,10.43
2023-04-20T16:41:18.140Z,11.20
2023-04-20T16:43:44.989Z,9.20
2023-04-20T16:46:13.505Z,13.02
2023-04-20T16:48:40.311Z,8.98
2023-04-20T16:51:07.433Z,11.95
2023-04-20T16:53:34.799Z,12.82
2023-04-20T16:56:02.629Z,13.10
2023-04-20T16:58:29.380Z,13.70
2023-04-20T17:00:56.598Z,12.23
2023-04-20T17:03:23.548Z,13.00
2023-04-20T17:05:50.855Z,11.98
2023-04-20T17:08:17.647Z,12.85
2023-04-20T17:10:44.721Z,13.02
2023-04-20T17:13:11.554Z,13.13
2023-04-20T17:15:40.091Z,18.30
2023-04-20T17:18:07.569Z,16.80
2023-04-20T17:20:34.719Z,18.02
2023-04-20T17:23:01.397Z,14.07
2023-04-20T17:25:28.389Z,12.35
2023-04-20T17:27:55.169Z,16.08
2023-04-20T17:30:22.228Z,16.27
2023-04-20T17:32:48.931Z,16.65
2023-04-20T17:35:16.046Z,13.27
2023-04-20T17:37:42.783Z,13.57
2023-04-20T17:40:09.962Z,12.57
2023-04-20T17:42:36.743Z,14.20
2023-04-20T17:45:06.090Z,14.80
2023-04-20T17:47:33.059Z,13.35
2023-04-20T17:50:00.158Z,13.88
2023-04-20T17:52:27.205Z,17.55
2023-04-20T17:54:54.881Z,14.50
2023-04-20T17:57:21.660Z,15.85
2023-04-20T17:59:48.642Z,18.58
2023-04-20T18:02:15.973Z,17.05
2023-04-20T18:04:43.775Z,17.20
2023-04-20T18:07:13.133Z,22.52
2023-04-20T18:09:40.216Z,23.58
2023-04-20T18:12:08.618Z,23.90
2023-04-20T18:14:35.792Z,20.67
2023-04-20T18:17:03.206Z,23.33
2023-04-20T18:19:30.353Z,22.08
2023-04-20T18:21:57.139Z,20.92
2023-04-20T18:24:24.165Z,20.50
2023-04-20T18:26:51.003Z,17.38
2023-04-20T18:29:18.104Z,27.20
2023-04-20T18:31:46.482Z,18.70
2023-04-20T18:34:15.040Z,19.55
2023-04-20T18:36:41.956Z,20.73
2023-04-20T18:39:09.645Z,17.90
2023-04-20T18:41:36.908Z,17.08
2023-04-20T18:44:04.281Z,17.70
2023-04-20T18:46:31.067Z,19.60
2023-04-20T18:48:58.130Z,16.38
2023-04-20T18:51:24.995Z,19.15
2023-04-20T18:53:52.790Z,20.77
2023-04-20T18:56:19.470Z,21.33
2023-04-20T18:58:46.428Z,17.58
2023-04-20T19:01:13.246Z,23.13
2023-04-20T19:03:40.535Z,25.70
2023-04-20T19:06:07.415Z,22.63
2023-04-20T19:08:34.705Z,23.03
2023-04-20T19:11:01.646Z,22.63
2023-04-20T19:13:28.654Z,25.00
2023-04-20T19:15:58.858Z,22.95
2023-04-20T19:18:26.791Z,20.98
2023-04-20T19:20:54.330Z,23.83
2023-04-20T19:23:22.132Z,20.77
2023-04-20T19:25:49.027Z,22.63
2023-04-20T19:28:16.342Z,20.00
2023-04-20T19:30:43.116Z,23.17
2023-04-20T19:33:10.264Z,21.63
2023-04-20T19:35:37.136Z,25.90
2023-04-20T19:38:04.148Z,24.80
2023-04-20T19:40:30.919Z,25.65
2023-04-20T19:42:57.970Z,22.92
2023-04-20T19:45:25.125Z,24.17
2023-04-20T19:47:52.259Z,23.10
2023-04-20T19:50:19.165Z,25.88
2023-04-20T19:52:46.227Z,24.50
2023-04-20T19:55:13.447Z,27.13
2023-04-20T19:57:40.573Z,20.20
2023-04-20T20:00:08.779Z,24.38
2023-04-20T20:02:40.425Z,24.23
2023-04-20T20:05:07.784Z,28.45
2023-04-20T20:07:35.760Z,24.60
2023-04-20T20:10:03.941Z,23.38
2023-04-20T20:12:31.170Z,23.38
2023-04-20T20:14:57.891Z,27.13
2023-04-20T20:17:25.230Z,25.70
2023-04-20T20:19:53.791Z,24.00
2023-04-20T20:22:22.160Z,29.53
2023-04-20T20:24:51.129Z,25.52
2023-04-20T20:27:18.265Z,26.88
2023-04-20T20:29:45.198Z,23.38
2023-04-20T20:32:12.144Z,22.70
2023-04-20T20:34:39.068Z,24.73
2023-04-20T20:37:06.243Z,23.98
2023-04-20T20:39:32.999Z,24.03
2023-04-20T20:42:01.838Z,25.53
2023-04-20T20:44:32.704Z,25.07
2023-04-20T20:47:00.710Z,24.52
2023-04-20T20:49:27.709Z,28.38
2023-04-20T20:51:54.828Z,24.25
2023-04-20T20:54:21.576Z,25.27
2023-04-20T20:56:48.635Z,32.10
2023-04-20T20:59:15.508Z,25.33
2023-04-20T21:01:42.655Z,25.55
2023-04-20T21:04:09.564Z,27.13
2023-04-20T21:06:36.672Z,22.92
2023-04-20T21:09:04.269Z,22.73
2023-04-20T21:11:31.378Z,28.17
2023-04-20T21:14:01.919Z,27.97
2023-04-20T21:16:29.388Z,23.30
2023-04-20T21:18:56.275Z,27.23
2023-04-20T21:21:23.317Z,27.08
2023-04-20T21:23:50.327Z,25.40
2023-04-20T21:26:17.390Z,28.97
2023-04-20T21:28:44.257Z,27.10
2023-04-20T21:31:11.666Z,25.63
2023-04-20T21:33:38.482Z,30.30
2023-04-20T21:36:05.916Z,28.77
2023-04-20T21:38:32.723Z,24.63
2023-04-20T21:40:59.776Z,26.87
2023-04-20T21:43:26.510Z,21.77
2023-04-20T21:45:53.504Z,28.80
2023-04-20T21:48:20.300Z,31.13
2023-04-20T21:50:47.431Z,23.10
2023-04-20T21:53:14.147Z,29.50
2023-04-20T21:55:41.407Z,22.63
2023-04-20T21:58:08.167Z,22.90
2023-04-20T22:00:35.188Z,32.67
2023-04-20T22:03:02.095Z,21.63
2023-04-20T22:05:32.146Z,22.30
2023-04-20T22:07:58.967Z,26.43
2023-04-20T22:10:26.334Z,21.47
2023-04-20T22:12:53.119Z,23.23
2023-04-20T22:15:22.282Z,21.80
2023-04-20T22:17:49.094Z,26.20
2023-04-20T22:20:19.112Z,22.07
2023-04-20T22:22:46.718Z,23.13
2023-04-20T22:25:13.745Z,25.10
2023-04-20T22:27:40.714Z,29.53
2023-04-20T22:30:09.574Z,22.27
2023-04-20T22:32:37.660Z,24.83
2023-04-20T22:35:05.251Z,25.87
2023-04-20T22:37:32.005Z,26.10
2023-04-20T22:39:59.178Z,29.33
2023-04-20T22:42:26.098Z,27.13
2023-04-20T22:44:53.182Z,24.60
2023-04-20T22:47:20.011Z,25.93
2023-04-20T22:49:47.436Z,30.33
2023-04-20T22:52:14.246Z,24.87
2023-04-20T22:54:41.644Z,27.43
2023-04-20T22:57:08.363Z,23.40
2023-04-20T22:59:35.345Z,20.90
2023-04-20T23:02:02.153Z,24.27
2023-04-20T23:04:29.722Z,32.07
2023-04-20T23:06:57.677Z,28.53
2023-04-20T23:09:24.745Z,28.43
2023-04-20T23:11:53.808Z,30.07
2023-04-20T23:14:22.513Z,29.90
2023-04-20T23:16:49.970Z,30.17
2023-04-20T23:19:17.401Z,29.83
2023-04-20T23:21:44.306Z,24.50
2023-04-20T23:24:11.413Z,31.97
2023-04-20T23:26:38.096Z,25.57
2023-04-20T23:29:05.213Z,27.30
2023-04-20T23:31:31.918Z,30.23
2023-04-20T23:33:58.972Z,30.17
2023-04-20T23:36:26.339Z,28.63
2023-04-20T23:38:53.446Z,35.00
2023-04-20T23:41:20.576Z,34.50
2023-04-20T23:43:47.546Z,27.87
2023-04-20T23:46:15.188Z,31.87
2023-04-20T23:48:42.191Z,26.97
2023-04-20T23:51:09.160Z,32.23
2023-04-20T23:53:37.450Z,34.40
2023-04-20T23:56:04.502Z,35.50
2023-04-20T23:58:32.076Z,31.93
